DW8482 Tortoreto Alto IT current weather conditions

sailwx.info

Wind from 276 at 3 knots gusting 4

Air temperature 22.2° C
Dewpoint 14.6° C

Last reported at 2016-Aug-28 03:52 UTC.
Time now 2016-Aug-28 05:15 UTC

Location: N 42°48' E 013°54'.
View on Google Maps.

See reports from other nearby stations

  
Tides and Currents Weather Stations Pressure Air Temp Water Temp Dewpoint Dewpoint Depression Visibility Wind Speed Wind Dir Waves Ship Positions
date/time (UTC)wind fromknots sea level pressurealtimeterstation pressurevisibilityair tempwater tempwave heightnotes
2016-Aug-28 03:52 276 3 gusting 4 22.2
2016-Aug-28 03:47 279 3 gusting 4 22.2
2016-Aug-28 03:42 278 3 gusting 5 22.2
2016-Aug-28 03:37 279 5 gusting 4 22.8
2016-Aug-28 03:32 280 4 gusting 5 22.8
2016-Aug-28 03:22 277 3 gusting 4 22.8
2016-Aug-28 03:17 278 3 gusting 4 22.8
2016-Aug-28 03:12 273 2 gusting 3 23.3
2016-Aug-28 03:07 281 2 gusting 3 23.3
2016-Aug-28 03:02 284 23.9
2016-Aug-28 02:57 284 23.9
2016-Aug-28 02:52 284 23.9
2016-Aug-28 02:42 284 23.9
2016-Aug-28 02:37 284 23.9
2016-Aug-28 02:32 284 23.3
2016-Aug-28 02:12 278 0 gusting 2 22.8
2016-Aug-28 02:07 277 1 gusting 3 22.8
2016-Aug-28 02:02 272 1 gusting 4 22.8
2016-Aug-28 01:47 267 2 gusting 3 22.8
2016-Aug-28 01:32 273 2 gusting 4 22.2
2016-Aug-28 01:27 271 3 gusting 5 22.2
2016-Aug-28 01:17 265 1 gusting 5 22.2
2016-Aug-28 01:07 272 4 gusting 6 22.2
2016-Aug-28 01:02 263 4 gusting 5 22.2
2016-Aug-28 00:47 271 1 gusting 5 22.8
2016-Aug-28 00:42 269 5 gusting 5 22.2
2016-Aug-28 00:37 259 3 gusting 5 22.2
2016-Aug-28 00:27 281 5 gusting 6 21.7
2016-Aug-28 00:17 276 3 gusting 6 21.7
2016-Aug-28 00:12 265 3 gusting 6 21.7
2016-Aug-28 00:07 268 4 gusting 6 22.2
2016-Aug-28 00:02 263 4 gusting 6 21.7
2016-Aug-27 23:57 286 4 gusting 5 21.7
2016-Aug-27 23:52 267 3 gusting 6 21.7
2016-Aug-27 23:27 268 3 gusting 6 21.7
2016-Aug-27 23:17 267 4 gusting 5 21.7
2016-Aug-27 23:02 267 3 gusting 6 21.7
2016-Aug-27 22:57 262 4 gusting 6 22.2
2016-Aug-27 22:42 273 2 gusting 4 21.7
2016-Aug-27 22:37 270 1 gusting 3 21.7
2016-Aug-27 22:27 277 21.7
2016-Aug-27 22:22 277 21.7
2016-Aug-27 22:12 278 21.7
2016-Aug-27 22:07 271 2 gusting 3 21.7
2016-Aug-27 22:02 272 2 gusting 3 21.7
2016-Aug-27 21:57 275 1 gusting 5 21.7
2016-Aug-27 21:52 276 2 gusting 4 21.7
2016-Aug-27 21:32 278 22.2
2016-Aug-27 21:22 281 21.7
2016-Aug-27 21:17 282 21.7
2016-Aug-27 21:12 282 22.2
2016-Aug-27 21:07 282 22.2
2016-Aug-27 21:02 281 22.2
2016-Aug-27 20:57 282 22.2
2016-Aug-27 20:32 070 0 gusting 0 22.2
2016-Aug-27 20:27 070 22.2
2016-Aug-27 20:22 070 22.2
2016-Aug-27 20:12 070 22.2
2016-Aug-27 20:07 070 22.2
2016-Aug-27 19:52 070 22.2
2016-Aug-27 19:37 070 22.2
2016-Aug-27 19:32 070 22.8
2016-Aug-27 19:22 070 22.2
2016-Aug-27 19:17 070 22.2
2016-Aug-27 19:12 070 22.2
2016-Aug-27 18:57 070 22.8
2016-Aug-27 18:52 070 22.8
2016-Aug-27 18:47 070 22.8
2016-Aug-27 18:42 070 22.8
2016-Aug-27 18:37 070 22.8
2016-Aug-27 18:32 070 22.8
2016-Aug-27 18:27 070 22.8
2016-Aug-27 18:22 070 0 gusting 1 22.8
2016-Aug-27 18:17 070 0 gusting 2 22.8
2016-Aug-27 18:07 070 22.8
2016-Aug-27 17:57 071 22.8
2016-Aug-27 17:52 070 22.8
2016-Aug-27 17:42 070 22.8
2016-Aug-27 17:32 070 22.8
2016-Aug-27 17:27 065 22.8
2016-Aug-27 17:22 065 22.8
2016-Aug-27 17:17 065 0 gusting 1 22.8
2016-Aug-27 17:12 065 22.8
2016-Aug-27 16:57 076 23.3
2016-Aug-27 16:47 066 23.3
2016-Aug-27 16:37 065 23.9
2016-Aug-27 16:27 074 23.9
2016-Aug-27 16:22 073 24.4
2016-Aug-27 16:17 073 25.0
2016-Aug-27 16:12 071 24.4
2016-Aug-27 16:02 078 25.0
2016-Aug-27 15:52 071 25.0
2016-Aug-27 15:42 076 4 gusting 6 24.4
2016-Aug-27 15:37 071 1 gusting 3 24.4
2016-Aug-27 15:32 071 25.0
2016-Aug-27 15:27 106 25.0
2016-Aug-27 15:17 067 1 gusting 5 25.0
2016-Aug-27 15:12 062 0 gusting 6 25.6
2016-Aug-27 15:07 089 25.6
2016-Aug-27 14:57 068 25.6
2016-Aug-27 14:52 069 0 gusting 6 25.0
2016-Aug-27 14:47 070 0 gusting 4 26.1
2016-Aug-27 14:27 074 25.6
2016-Aug-27 14:17 261 1 gusting 6 26.1
2016-Aug-27 14:07 075 26.1
2016-Aug-27 14:02 078 0 gusting 4 26.1
2016-Aug-27 13:42 057 26.7
2016-Aug-27 13:37 280 0 gusting 3 26.7
2016-Aug-27 13:27 071 0 gusting 6 26.1
2016-Aug-27 13:22 081 26.7
2016-Aug-27 13:17 064 26.7
2016-Aug-27 13:12 064 0 gusting 4 26.7
2016-Aug-27 13:02 068 1 gusting 4 26.7
2016-Aug-27 12:57 065 0 gusting 4 26.7
2016-Aug-27 12:52 063 1 gusting 2 26.7
2016-Aug-27 12:47 061 0 gusting 6 26.7
2016-Aug-27 12:42 058 26.1
2016-Aug-27 12:22 254 0 gusting 3 26.7
2016-Aug-27 12:17 259 0 gusting 3 26.7
2016-Aug-27 12:07 078 26.7
2016-Aug-27 11:57 077 0 gusting 7 26.7
2016-Aug-27 11:52 080 26.1
2016-Aug-27 11:47 215 1 gusting 7 26.1
2016-Aug-27 11:32 069 2 gusting 7 26.7
2016-Aug-27 11:22 074 2 gusting 6 26.7
2016-Aug-27 11:12 074 1 gusting 6 26.7
2016-Aug-27 11:02 093 26.7
2016-Aug-27 10:57 078 3 gusting 6 27.2
2016-Aug-27 10:52 073 2 gusting 6 26.7
2016-Aug-27 10:37 245 27.2
2016-Aug-27 10:32 069 2 gusting 6 27.2
2016-Aug-27 10:27 063 27.2
2016-Aug-27 10:22 040 1 gusting 6 27.2
2016-Aug-27 10:17 066 3 gusting 6 27.2
2016-Aug-27 10:07 076 27.8
2016-Aug-27 10:02 055 2 gusting 7 27.8
2016-Aug-27 09:57 057 27.8
2016-Aug-27 09:52 067 0 gusting 3 27.8
2016-Aug-27 09:47 067 27.8
2016-Aug-27 09:42 065 27.8
2016-Aug-27 09:37 063 27.8
2016-Aug-27 09:27 071 28.3
2016-Aug-27 09:07 067 27.8
2016-Aug-27 09:02 067 27.8
2016-Aug-27 08:57 067 27.8
2016-Aug-27 08:52 067 27.8
2016-Aug-27 08:42 074 3 gusting 4 27.8
2016-Aug-27 08:37 065 27.8
2016-Aug-27 08:32 061 1 gusting 2 27.2
2016-Aug-27 08:27 275 27.2
2016-Aug-27 08:22 275 26.7
2016-Aug-27 08:17 275 26.1
2016-Aug-27 08:12 275 2 gusting 3 25.6
2016-Aug-27 08:07 271 1 gusting 3 25.6
2016-Aug-27 07:47 267 2 gusting 2 25.0
2016-Aug-27 07:42 273 24.4
2016-Aug-27 07:37 267 2 gusting 3 24.4
2016-Aug-27 07:27 273 2 gusting 2 24.4
2016-Aug-27 07:22 273 23.9
2016-Aug-27 07:17 279 3 gusting 4 23.9
2016-Aug-27 07:12 265 23.3
2016-Aug-27 07:07 277 2 gusting 3 23.3
2016-Aug-27 07:02 261 2 gusting 3 23.3
2016-Aug-27 06:57 280 0 gusting 4 23.3
2016-Aug-27 06:47 261 0 gusting 4 22.8
2016-Aug-27 06:37 278 1 gusting 3 22.8
2016-Aug-27 06:32 275 22.2
2016-Aug-27 06:27 272 22.2
2016-Aug-27 06:17 279 3 gusting 3 21.7
2016-Aug-27 06:12 277 2 gusting 4 21.7
2016-Aug-27 06:02 263 2 gusting 4 21.7
2016-Aug-27 05:57 275 2 gusting 3 21.7
2016-Aug-27 05:37 267 3 gusting 4 21.1
2016-Aug-27 05:27 262 3 gusting 4 21.1
2016-Aug-27 05:22 272 3 gusting 4 21.1
2016-Aug-27 05:17 274 3 gusting 4 21.1
2016-Aug-27 05:12 267 2 gusting 4 21.1
2016-Aug-27 05:07 271 2 gusting 4 21.1
2016-Aug-27 05:02 267 3 gusting 5 21.1
2016-Aug-27 04:57 265 2 gusting 4 21.1
2016-Aug-27 04:52 274 2 gusting 4 21.1
2016-Aug-27 04:47 270 3 gusting 3 21.1
2016-Aug-27 04:37 271 2 gusting 4 21.1
2016-Aug-27 04:32 270 2 gusting 3 21.1
2016-Aug-27 04:27 271 1 gusting 2 21.1
2016-Aug-27 04:22 270 1 gusting 3 21.1
2016-Aug-27 04:12 271 3 gusting 4 20.6
2016-Aug-27 04:02 274 3 gusting 5 20.6
2016-Aug-27 03:52 256 4 gusting 6 20.6
2016-Aug-27 03:37 278 3 gusting 6 20.6
2016-Aug-27 03:32 287 3 gusting 5 20.0
2016-Aug-27 03:17 274 3 gusting 5 20.6
2016-Aug-27 03:12 269 1 gusting 2 21.1
2016-Aug-27 03:07 269 20.6
2016-Aug-27 02:52 269 0 20.6
2016-Aug-27 02:42 270 21.1
2016-Aug-27 02:37 269 1 gusting 2 21.1
2016-Aug-27 02:22 269 21.1
2016-Aug-27 02:12 269 21.1
2016-Aug-27 02:07 269 21.1
2016-Aug-27 02:02 269 21.7
2016-Aug-27 01:57 269 21.7
2016-Aug-27 01:47 269 2 gusting 3 21.7
2016-Aug-27 01:42 269 1 gusting 2 21.7
2016-Aug-27 01:37 269 1 gusting 2 21.7
2016-Aug-27 01:32 269 1 gusting 2 21.7
2016-Aug-27 01:27 273 2 gusting 3 21.7
2016-Aug-27 01:22 277 1 gusting 3 21.7
2016-Aug-27 01:12 274 3 gusting 5 21.7
2016-Aug-27 00:48 275 2 gusting 3 21.7
2016-Aug-27 00:37 273 3 gusting 5 21.7
2016-Aug-27 00:27 269 22.8
2016-Aug-27 00:22 269 22.8
2016-Aug-27 00:12 268 22.8
2016-Aug-27 00:07 269 1 gusting 1 22.8
2016-Aug-27 00:02 269 22.8
2016-Aug-26 23:57 269 0 gusting 2 22.2
2016-Aug-26 23:52 268 0 gusting 2 22.2
2016-Aug-26 23:37 265 2 gusting 3 22.2
2016-Aug-26 23:32 271 2 gusting 4 22.2
2016-Aug-26 23:27 270 3 gusting 4 22.2
2016-Aug-26 23:17 273 1 gusting 3 21.7
2016-Aug-26 23:12 270 2 gusting 3 21.7
2016-Aug-26 23:07 271 0 gusting 2 21.7
2016-Aug-26 23:02 271 21.7
2016-Aug-26 22:57 271 2 gusting 3 21.7
2016-Aug-26 22:52 271 1 gusting 3 21.7
2016-Aug-26 22:47 277 21.7
2016-Aug-26 22:37 275 3 gusting 4 21.7
2016-Aug-26 22:27 283 2 gusting 4 21.7
2016-Aug-26 22:22 279 2 gusting 4 21.7
2016-Aug-26 22:17 278 3 gusting 3 21.7
2016-Aug-26 22:12 275 2 gusting 3 21.7
2016-Aug-26 22:07 277 2 gusting 4 21.7
2016-Aug-26 22:02 277 1 gusting 4 21.7
2016-Aug-26 21:57 275 2 gusting 4 22.2
2016-Aug-26 21:52 278 3 gusting 4 22.2
2016-Aug-26 21:42 217 0 gusting 2 22.2
2016-Aug-26 21:27 195 0 gusting 2 22.2
2016-Aug-26 21:22 194 22.2
2016-Aug-26 21:12 195 22.2
2016-Aug-26 21:07 195 22.2
2016-Aug-26 21:02 167 1 gusting 1 22.2
2016-Aug-26 20:57 167 22.2
2016-Aug-26 20:52 167 22.2
2016-Aug-26 20:47 167 22.2
2016-Aug-26 20:37 167 22.2
2016-Aug-26 20:32 167 22.2
2016-Aug-26 20:22 167 22.2
2016-Aug-26 20:12 167 22.2
2016-Aug-26 20:07 167 22.2
2016-Aug-26 20:02 167 22.2
2016-Aug-26 19:57 166 22.2
2016-Aug-26 19:42 167 22.2
2016-Aug-26 19:32 167 22.2
2016-Aug-26 19:17 167 22.2
2016-Aug-26 18:52 167 22.8
2016-Aug-26 18:47 167 22.8
2016-Aug-26 18:37 167 22.8
2016-Aug-26 18:22 167 23.3
2016-Aug-26 18:12 167 23.3
2016-Aug-26 18:02 167 23.3
2016-Aug-26 17:57 167 23.3
2016-Aug-26 17:52 167 23.3
2016-Aug-26 17:37 167 23.3
2016-Aug-26 17:22 167 23.3
2016-Aug-26 17:07 167 23.9
2016-Aug-26 16:57 167 23.9
2016-Aug-26 16:52 166 23.9
2016-Aug-26 16:47 167 24.4
2016-Aug-26 16:37 166 24.4
2016-Aug-26 16:27 167 25.0
2016-Aug-26 15:47 196 25.6
2016-Aug-26 15:42 173 1 gusting 2 25.6
2016-Aug-26 15:37 102 25.0
2016-Aug-26 15:32 065 25.6
2016-Aug-26 15:27 251 0 gusting 2 25.6
2016-Aug-26 15:22 257 26.1
2016-Aug-26 14:57 297 0 gusting 3 26.1
2016-Aug-26 14:47 336 1 gusting 6 26.1
2016-Aug-26 14:37 084 0 gusting 4 26.7
2016-Aug-26 14:32 223 1 gusting 3 26.1
2016-Aug-26 14:22 078 0 gusting 4 26.7
2016-Aug-26 14:12 242 26.7
2016-Aug-26 14:07 074 26.1
2016-Aug-26 14:02 302 1 gusting 4 26.1
2016-Aug-26 13:47 265 1 gusting 3 26.7
2016-Aug-26 13:42 243 26.7
2016-Aug-26 13:37 074 0 gusting 4 27.2
2016-Aug-26 13:32 146 0 gusting 2 27.2
2016-Aug-26 13:27 254 27.2
2016-Aug-26 13:07 271 0 gusting 4 27.2
2016-Aug-26 13:02 263 1 gusting 2 27.2
2016-Aug-26 12:52 256 27.2
2016-Aug-26 12:42 087 27.2
2016-Aug-26 12:32 062 27.2
2016-Aug-26 12:27 093 27.2
2016-Aug-26 12:22 074 4 gusting 6 27.2
2016-Aug-26 12:17 065 6 gusting 7 27.8
2016-Aug-26 12:12 211 0 gusting 2 27.2
2016-Aug-26 12:02 267 0 gusting 6 27.2
2016-Aug-26 11:37 068 27.2
2016-Aug-26 11:32 263 27.2
2016-Aug-26 11:17 269 3 gusting 6 27.2
2016-Aug-26 11:12 052 27.8
2016-Aug-26 10:57 066 3 gusting 7 27.2
2016-Aug-26 10:52 089 1 gusting 6 27.2
2016-Aug-26 10:47 094 27.2
2016-Aug-26 10:42 250 0 gusting 2 26.7
2016-Aug-26 10:27 080 27.8
2016-Aug-26 10:07 069 3 gusting 4 26.7
2016-Aug-26 10:02 261 1 gusting 3 26.7
2016-Aug-26 09:57 229 26.7
2016-Aug-26 09:52 217 27.2
2016-Aug-26 09:47 175 1 gusting 4 26.7
2016-Aug-26 09:37 267 0 gusting 2 26.7
2016-Aug-26 09:32 254 26.7
2016-Aug-26 09:27 071 3 gusting 6 26.7
2016-Aug-26 09:12 272 0 gusting 2 26.7
2016-Aug-26 08:57 069 27.2
2016-Aug-26 08:47 241 26.7
2016-Aug-26 08:42 240 26.7
2016-Aug-26 08:32 234 26.1
2016-Aug-26 08:17 180 25.6
2016-Aug-26 08:12 265 0 gusting 3 25.0
2016-Aug-26 07:57 286 25.0
2016-Aug-26 07:52 274 2 gusting 3 25.0
2016-Aug-26 07:37 271 2 gusting 5 24.4
2016-Aug-26 07:27 195 24.4
2016-Aug-26 07:07 287 5 gusting 6 23.9
2016-Aug-26 07:02 273 0 gusting 2 23.9
2016-Aug-26 06:42 274 3 gusting 5 22.8
2016-Aug-26 06:32 275 22.8
2016-Aug-26 06:27 277 22.2
2016-Aug-26 06:22 273 1 gusting 2 22.2
2016-Aug-26 06:12 272 21.7
2016-Aug-26 06:07 272 1 gusting 4 21.1
2016-Aug-26 05:57 273 2 gusting 3 21.1
2016-Aug-26 05:52 269 20.6
2016-Aug-26 05:47 272 1 gusting 2 20.6
2016-Aug-26 05:37 284 20.6
2016-Aug-26 05:32 274 20.6
2016-Aug-26 05:12 286 2 gusting 3 20.6
2016-Aug-26 05:02 284 20.6